Central Sonoma County Latest

26 Stations

15 Minute Data | America/Los_Angeles
as of 1/19/21 5:31 PM PST
Station Date Time Temp (°F) RH (%) Dew Pt (°F) Wind Spd (mph) Wind Dir (°) Wind Gust (mph) Latest Rain (In) Daily Rain (In) Daily Min Temp (°F) Daily Max Temp (°F)
Healdsburg-South (Sodini) 1/19/21 1730 60.7   11.4 19   9 18.2   6.4 2.2 NE | 43 6.4   7.7 0.00 0.00 53.4   5.1 68.2   10.3
Windsor-NW (Ranch 8) 1/19/21 1730 61.2   10.3 20   8 20.0   3.0 3.3 ENE | 68 9.3   3.6 0.00 0.00 53.5   2.9 71.8   12.4
Windsor-East (Ranch 16) 1/19/21 1730 62.6   8.0 15   5 13.5   2.3 3.9 NNW | 345 9.7   2.4 0.00 0.00 53.9   6.3 68.1   9.7
Mark West-North (Ranch 14) 1/19/21 1730 60.8   10.0 17   8 15.1   5.9 5.4 N | 11 10.3   0.4 0.00 0.00 53.2   6.2 66.6   11.9
Windsor-SE (Silk Rd) 1/19/21 1730 62.7   9.0 14   6 13.1   4.1 8.7 NNE | 33 14.7   3.0 0.00 0.00 54.3   9.1 66.5   12.5
Fulton-NW (Ranch 5) 1/19/21 1730 61.3   9.8 18   7 17.2   4.6 6.3 N | 357 10.9   2.8 0.00 0.00 53.6   7.9 65.9   11.4
Windsor-South (Laughlin Rd) 1/19/21 1730 59.0   9.0 - - - - - 0.00 0.00 52.6   4.6 66.5   11.1
Fulton-SE (Barnes Rd) 1/19/21 1730 60.0   9.7 22   9 21.1   3.8 7.5 NNE | 27 14.2   9.0 0.00 0.00 52.2   7.6 65.7   12.8
Fulton-SW (Ranch 21) 1/19/21 1730 60.4   10.2 18   8 16.4   5.6 5.5 NNE | 31 9.4   7.2 0.00 0.00 52.0   6.4 66.0   11.9
Santa Rosa-NW (Goldfields) 1/19/21 1730 60.3   9.9 18   7 16.8   3.6 5.1 NNE | 23 8.2   9.9 0.00 0.00 51.0   5.7 65.5   13.7
NW Santa Rosa (Piner Road) 1/19/21 1730 61.1   10.0 19   8 18.8   3.6 4.5 NNE | 27 9.3   1.9 0.00 0.00 48.6   5.2 65.5   13.1
River Rd South (Denner Ranch) 1/19/21 1730 61.5   8.4 16   5 15.1   2.3 7.6 NNE | 19 13.4   2.4 0.00 0.00 52.7   7.5 66.7   12.2
West Santa Rosa (Hawk's Roost) 1/19/21 1730 61.0   10.6 18   8 16.7   5.9 4.8 NNE | 26 8.2   12.2 0.00 0.00 52.4   7.2 65.8   12.5
Guerneville Rd West (Balletto) 1/19/21 1730 61.9   10.5 19   8 18.6   4.6 4.0 NE | 46 10.3   12.9 0.00 0.00 52.5   10.1 65.7   12.1
Guerneville Rd East (Rich Ranch) 1/19/21 1730 61.6   9.1 16   6 15.6   2.8 - - - - - 49.0   7.8 65.6   12.3
Occidental Rd (Sebastopol) 1/19/21 1715 61.5   10.4 17   7 16.0   3.0 3.7 NNE | 31 8.8   8.3 0.00 0.00 52.2   12.1 65.9   12.2
Lower Westside Rd (Ranch 12) 1/19/21 1730 58.4   6.3 24   2 21.8   3.6 1.2 N | 10 2.8   1.1 0.00 0.00 50.3   5.4 68.8   13.8
Guerneville (Laughlin Rd) 1/19/21 1730 52.0   0.3 43   29 30.3   12.9 2.9 WNW | 293 6.9   4.5 0.00 0.00 51.6   12.2 67.6   13.6
Korbel (Winery) 1/19/21 1730 54.9   3.2 37   21 28.9   14.2 2.6 NNE | 29 6.1   2.3 0.00 0.00 52.4   11.9 68.1   12.7
Forestville (Shone Farms) 1/19/21 1730 62.5   9.6 14   6 12.8   5.8 4.9 NNE | 13 11.0   1.9 0.00 0.00 52.2   5.0 67.6   11.6
Forestville-NE (Ranch 30) 1/19/21 1730 61.6   5.6 20   2 19.9   7.0 2.1 NNW | 332 9.0   3.4 0.00 0.00 52.1   9.2 68.6   12.1
Graton-West (Dutton Ranch) 1/19/21 1730 60.7   2.2 17   30 15.6   22.7 4.4 NE | 39 9.6   4.3 0.00 0.00 53.3   11.9 66.4   12.2
Graton-South (Mill Station Rd) 1/19/21 1730 61.2   10.3 17   7 16.4   4.8 2.0 NNE | 24 4.9   3.8 0.00 0.00 53.8   13.1 66.3   11.8
Sexton Valley (Jacqueline's Blk) 1/19/21 1730 57.8   12.2 25   12 22.3   5.5 1.1 W | 278 2.2   7.3 0.00 0.00 53.5   11.5 65.1   12.9
Sebastopol Hills (Burnside Rd) 1/19/21 1730 58.8   11.0 21   9 19.0   4.6 0.8 E | 91 3.9   7.0 0.00 0.00 51.7   0.1 64.3   12.1
Seaview/Fort Ross (Hirsch) 1/19/21 1730 55.9   8.9 17   5 12.0   13.6 6.5 NE | 37 9.6   6.3 0.00 0.00 47.9   12.1 59.2   14.8
Max     62.7 43 30.3 8.7 - 14.7 0.00 0.00 54.3 71.8
Avg     60.1 20 18.0 4.2 - 8.7 0.00 - - -
Min     52.0 14 12.0 0.8 - 2.2 0.00 0.00 47.9 59.2